createdAt,value
2022-07-28T00:01:11.509Z,20.57
2022-07-28T00:03:39.301Z,20.55
2022-07-28T00:06:07.342Z,20.53
2022-07-28T00:08:35.085Z,20.52
2022-07-28T00:11:04.482Z,20.52
2022-07-28T00:13:32.577Z,20.51
2022-07-28T00:16:00.417Z,20.51
2022-07-28T00:18:28.250Z,20.51
2022-07-28T00:20:56.901Z,20.50
2022-07-28T00:23:38.646Z,20.49
2022-07-28T00:26:09.609Z,20.49
2022-07-28T00:28:37.705Z,20.47
2022-07-28T00:31:09.215Z,20.46
2022-07-28T00:33:40.325Z,20.41
2022-07-28T00:36:10.395Z,20.39
2022-07-28T00:38:40.917Z,20.34
2022-07-28T00:41:13.430Z,20.33
2022-07-28T00:43:42.550Z,20.32
2022-07-28T00:46:11.044Z,20.29
2022-07-28T00:48:39.887Z,20.27
2022-07-28T00:51:10.283Z,20.25
2022-07-28T00:53:38.685Z,20.24
2022-07-28T00:56:07.477Z,20.17
2022-07-28T00:58:37.927Z,20.17
2022-07-28T01:01:06.014Z,20.12
2022-07-28T01:03:35.670Z,20.10
2022-07-28T01:06:09.692Z,20.08
2022-07-28T01:08:49.225Z,20.05
2022-07-28T01:11:27.230Z,20.05
2022-07-28T01:14:04.102Z,20.03
2022-07-28T01:16:31.940Z,19.97
2022-07-28T01:19:11.000Z,19.97
2022-07-28T01:21:42.139Z,19.95
2022-07-28T01:24:18.929Z,19.92
2022-07-28T01:26:56.086Z,19.92
2022-07-28T01:29:59.153Z,19.92
2022-07-28T01:32:33.499Z,19.92
2022-07-28T01:35:09.896Z,19.92
2022-07-28T01:37:44.150Z,19.93
2022-07-28T01:40:14.720Z,19.90
2022-07-28T01:42:47.586Z,19.91
2022-07-28T01:45:17.432Z,19.91
2022-07-28T01:47:47.886Z,19.90
2022-07-28T01:50:18.779Z,19.89
2022-07-28T01:52:49.528Z,19.90
2022-07-28T01:55:20.419Z,19.91
2022-07-28T01:57:49.636Z,19.88
2022-07-28T02:00:17.867Z,19.86
2022-07-28T02:02:49.550Z,19.84
2022-07-28T02:05:21.783Z,19.78
2022-07-28T02:07:52.466Z,19.77
2022-07-28T02:10:22.566Z,19.73
2022-07-28T02:12:52.998Z,19.70
2022-07-28T02:15:22.829Z,19.68
2022-07-28T02:17:54.254Z,19.67
2022-07-28T02:20:23.647Z,19.61
2022-07-28T02:22:53.322Z,19.62
2022-07-28T02:25:22.057Z,19.59
2022-07-28T02:27:53.346Z,19.59
2022-07-28T02:30:26.621Z,19.58
2022-07-28T02:32:57.970Z,19.55
2022-07-28T02:35:33.058Z,19.52
2022-07-28T02:38:07.663Z,19.50
2022-07-28T02:40:38.330Z,19.44
2022-07-28T02:43:11.383Z,19.46
2022-07-28T02:45:43.348Z,19.41
2022-07-28T02:48:15.997Z,19.38
2022-07-28T02:50:46.019Z,19.34
2022-07-28T02:53:16.521Z,19.33
2022-07-28T02:55:47.590Z,19.30
2022-07-28T02:58:17.542Z,19.28
2022-07-28T03:00:46.240Z,19.25
2022-07-28T03:03:16.256Z,19.23
2022-07-28T03:05:44.233Z,19.21
2022-07-28T03:08:12.095Z,19.19
2022-07-28T03:10:40.440Z,19.16
2022-07-28T03:13:08.354Z,19.15
2022-07-28T03:15:40.341Z,19.14
2022-07-28T03:18:08.447Z,19.12
2022-07-28T03:20:37.602Z,19.11
2022-07-28T03:23:05.705Z,19.08
2022-07-28T03:25:38.696Z,19.06
2022-07-28T03:28:09.510Z,19.04
2022-07-28T03:30:42.672Z,19.05
2022-07-28T03:33:11.184Z,19.01
2022-07-28T03:35:44.743Z,19.00
2022-07-28T03:38:15.444Z,19.00
2022-07-28T03:40:47.448Z,18.97
2022-07-28T03:43:18.013Z,18.96
2022-07-28T03:45:47.796Z,18.95
2022-07-28T03:48:16.233Z,18.91
2022-07-28T03:50:45.861Z,18.91
2022-07-28T03:53:21.231Z,18.89
2022-07-28T03:55:51.290Z,18.92
2022-07-28T03:58:19.331Z,18.89
2022-07-28T04:00:47.251Z,18.86
2022-07-28T04:03:35.728Z,18.82
2022-07-28T04:06:05.692Z,18.81
2022-07-28T04:08:33.716Z,18.79
2022-07-28T04:11:01.483Z,18.75
2022-07-28T04:13:29.197Z,18.75
2022-07-28T04:15:57.202Z,18.72
2022-07-28T04:18:24.966Z,18.70
2022-07-28T04:20:52.914Z,18.69
2022-07-28T04:23:22.432Z,18.61
2022-07-28T04:25:50.135Z,18.59
2022-07-28T04:28:18.208Z,18.58
2022-07-28T04:30:46.195Z,18.55
2022-07-28T04:33:14.550Z,18.51
2022-07-28T04:35:42.278Z,18.52
2022-07-28T04:38:12.067Z,18.50
2022-07-28T04:40:42.291Z,18.51
2022-07-28T04:43:10.268Z,18.49
2022-07-28T04:45:38.615Z,18.42
2022-07-28T04:48:14.413Z,18.44
2022-07-28T04:50:45.794Z,18.43
2022-07-28T04:53:13.693Z,18.41
2022-07-28T04:55:42.982Z,18.43
2022-07-28T04:58:12.456Z,18.44
2022-07-28T05:00:40.802Z,18.43
2022-07-28T05:03:08.533Z,18.43
2022-07-28T05:05:36.322Z,18.42
2022-07-28T05:08:04.396Z,18.40
2022-07-28T05:10:32.180Z,18.38
2022-07-28T05:13:06.227Z,18.32
2022-07-28T05:15:34.041Z,18.36
2022-07-28T05:18:01.784Z,18.38
2022-07-28T05:20:29.924Z,18.38
2022-07-28T05:22:58.407Z,18.37
2022-07-28T05:25:26.525Z,18.36
2022-07-28T05:27:54.847Z,18.36
2022-07-28T05:30:23.969Z,18.34
2022-07-28T05:32:53.767Z,18.35
2022-07-28T05:35:21.880Z,18.36
2022-07-28T05:37:49.626Z,18.38
2022-07-28T05:40:18.352Z,18.41
2022-07-28T05:42:48.006Z,18.44
2022-07-28T05:45:17.695Z,18.46
2022-07-28T05:47:48.756Z,18.47
2022-07-28T05:50:18.016Z,18.47
2022-07-28T05:52:46.874Z,18.48
2022-07-28T05:55:15.475Z,18.53
2022-07-28T05:57:43.415Z,18.51
2022-07-28T06:00:14.050Z,18.57
2022-07-28T06:02:42.187Z,18.61
2022-07-28T06:05:11.632Z,18.67
2022-07-28T06:07:42.415Z,18.71
2022-07-28T06:10:13.049Z,18.77
2022-07-28T06:12:42.267Z,18.85
2022-07-28T06:15:14.330Z,18.92
2022-07-28T06:17:42.521Z,18.95
2022-07-28T06:20:13.200Z,19.03
2022-07-28T06:22:44.922Z,19.10
2022-07-28T06:25:16.546Z,19.09
2022-07-28T06:27:46.789Z,19.22
2022-07-28T06:30:15.106Z,19.21
2022-07-28T06:32:43.030Z,19.29
2022-07-28T06:35:14.965Z,19.35
2022-07-28T06:37:43.134Z,19.41
2022-07-28T06:40:13.131Z,19.48
2022-07-28T06:42:41.561Z,19.52
2022-07-28T06:45:21.436Z,19.53
2022-07-28T06:47:49.595Z,19.56
2022-07-28T06:50:25.866Z,19.60
2022-07-28T06:52:54.505Z,19.64
2022-07-28T06:55:23.255Z,19.69
2022-07-28T06:57:50.941Z,19.74
2022-07-28T07:00:19.087Z,19.80
2022-07-28T07:02:47.094Z,19.85
2022-07-28T07:05:15.654Z,19.92
2022-07-28T07:07:45.670Z,19.97
2022-07-28T07:10:13.570Z,20.06
2022-07-28T07:12:41.300Z,20.15
2022-07-28T07:15:10.354Z,20.24
2022-07-28T07:17:38.402Z,20.35
2022-07-28T07:20:08.081Z,20.49
2022-07-28T07:22:35.898Z,20.62
2022-07-28T07:25:10.613Z,20.76
2022-07-28T07:27:38.948Z,20.90
2022-07-28T07:30:08.212Z,21.03
2022-07-28T07:32:36.384Z,21.11
2022-07-28T07:35:04.307Z,21.25
2022-07-28T07:37:32.933Z,21.34
2022-07-28T07:40:01.051Z,21.43
2022-07-28T07:42:30.377Z,21.41
2022-07-28T07:44:58.452Z,21.50
2022-07-28T07:47:26.191Z,21.54
2022-07-28T07:49:54.027Z,21.66
2022-07-28T07:52:21.715Z,21.76
2022-07-28T07:54:49.457Z,21.85
2022-07-28T07:57:17.676Z,21.94
2022-07-28T07:59:46.925Z,22.01
2022-07-28T08:02:14.682Z,22.12
2022-07-28T08:04:42.657Z,22.20
2022-07-28T08:07:10.654Z,22.30
2022-07-28T08:09:38.497Z,22.41
2022-07-28T08:12:06.957Z,22.49
2022-07-28T08:14:34.669Z,22.59
2022-07-28T08:17:03.968Z,22.51
2022-07-28T08:19:31.676Z,22.57
2022-07-28T08:21:59.827Z,22.63
2022-07-28T08:24:33.013Z,22.70
2022-07-28T08:27:02.890Z,22.78
2022-07-28T08:29:31.154Z,22.86
2022-07-28T08:31:59.473Z,22.95
2022-07-28T08:34:33.397Z,23.04
2022-07-28T08:37:03.875Z,23.11
2022-07-28T08:39:32.395Z,23.16
2022-07-28T08:42:06.244Z,23.21
2022-07-28T08:44:45.035Z,23.22
2022-07-28T08:47:13.637Z,23.22
2022-07-28T08:49:44.339Z,23.22
2022-07-28T08:52:14.957Z,23.20
2022-07-28T08:54:46.194Z,23.19
2022-07-28T08:57:19.799Z,23.20
2022-07-28T08:59:50.081Z,22.99
2022-07-28T09:02:18.579Z,22.99
2022-07-28T09:04:49.740Z,22.88
2022-07-28T09:07:18.116Z,22.90
2022-07-28T09:09:49.973Z,22.85
2022-07-28T09:12:18.475Z,22.85
2022-07-28T09:14:47.191Z,22.82
2022-07-28T09:17:15.312Z,22.80
2022-07-28T09:19:43.448Z,22.80
2022-07-28T09:22:13.349Z,22.87
2022-07-28T09:24:44.635Z,22.77
2022-07-28T09:27:14.860Z,22.81
2022-07-28T09:29:47.657Z,22.86
2022-07-28T09:32:17.603Z,22.87
2022-07-28T09:34:46.769Z,22.93
2022-07-28T09:37:24.746Z,23.08
2022-07-28T09:39:58.759Z,22.94
2022-07-28T09:42:27.058Z,23.01
2022-07-28T09:45:22.450Z,23.11
2022-07-28T09:48:10.171Z,23.31
2022-07-28T09:50:39.383Z,23.45
2022-07-28T09:53:28.433Z,23.38
2022-07-28T09:55:58.439Z,23.24
2022-07-28T09:58:27.010Z,23.29
2022-07-28T10:01:04.680Z,23.43
2022-07-28T10:03:35.890Z,23.45
2022-07-28T10:06:09.535Z,23.64
2022-07-28T10:08:44.433Z,23.86
2022-07-28T10:11:14.488Z,23.93
2022-07-28T10:14:04.006Z,24.01
2022-07-28T10:16:34.057Z,23.88
2022-07-28T10:19:04.152Z,24.09
2022-07-28T10:21:35.185Z,24.16
2022-07-28T10:24:07.550Z,24.16
2022-07-28T10:26:39.669Z,24.23
2022-07-28T10:29:08.862Z,24.14
2022-07-28T10:31:42.785Z,24.27
2022-07-28T10:34:16.496Z,24.34
2022-07-28T10:36:46.238Z,24.39
2022-07-28T10:39:21.480Z,24.44
2022-07-28T10:41:51.824Z,24.45
2022-07-28T10:44:20.809Z,24.53
2022-07-28T10:46:49.059Z,24.59
2022-07-28T10:49:17.804Z,24.64
2022-07-28T10:52:05.023Z,24.70
2022-07-28T10:54:48.354Z,24.77
2022-07-28T10:57:17.802Z,24.78
2022-07-28T11:00:12.868Z,24.76
2022-07-28T11:02:46.522Z,24.63
2022-07-28T11:05:36.778Z,24.67
2022-07-28T11:08:07.797Z,24.71
2022-07-28T11:10:51.483Z,24.71
2022-07-28T11:13:33.283Z,24.70
2022-07-28T11:16:21.000Z,24.72
2022-07-28T11:19:07.813Z,24.75
2022-07-28T11:22:32.673Z,24.73
2022-07-28T11:25:18.684Z,24.76
2022-07-28T11:28:06.619Z,24.78
2022-07-28T11:30:58.145Z,24.78
2022-07-28T11:33:47.316Z,24.82
2022-07-28T11:36:15.478Z,24.89
2022-07-28T11:39:22.230Z,24.96
2022-07-28T11:41:50.855Z,24.86
2022-07-28T11:44:28.617Z,24.95
2022-07-28T11:47:17.507Z,25.10
2022-07-28T11:49:46.849Z,24.93
2022-07-28T11:52:17.565Z,24.94
2022-07-28T11:54:54.896Z,25.14
2022-07-28T11:57:25.939Z,25.31
2022-07-28T12:00:06.514Z,25.47
2022-07-28T12:02:36.540Z,25.62
2022-07-28T12:05:13.791Z,25.60
2022-07-28T12:07:44.901Z,25.76
2022-07-28T12:10:53.905Z,25.61
2022-07-28T12:13:29.345Z,25.70
2022-07-28T12:15:59.207Z,25.51
2022-07-28T12:18:27.303Z,25.42
2022-07-28T12:20:55.869Z,25.48
2022-07-28T12:23:38.773Z,25.59
2022-07-28T12:26:34.452Z,25.68
2022-07-28T12:29:12.072Z,25.72
2022-07-28T12:31:54.234Z,25.79
2022-07-28T12:34:26.842Z,25.73
2022-07-28T12:36:58.152Z,25.81
2022-07-28T12:39:27.350Z,25.89
2022-07-28T12:42:04.493Z,26.02
2022-07-28T12:44:37.801Z,26.03
2022-07-28T12:47:09.193Z,26.08
2022-07-28T12:49:38.687Z,26.14
2022-07-28T12:52:17.599Z,26.15
2022-07-28T12:54:53.653Z,26.22
2022-07-28T12:57:48.317Z,26.33
2022-07-28T13:00:19.793Z,26.37
2022-07-28T13:02:50.263Z,26.38
2022-07-28T13:05:33.560Z,26.40
2022-07-28T13:08:07.752Z,26.45
2022-07-28T13:10:36.026Z,26.43
2022-07-28T13:13:06.744Z,26.41
2022-07-28T13:15:34.878Z,26.45
2022-07-28T13:18:05.194Z,26.48
2022-07-28T13:20:47.885Z,26.49
2022-07-28T13:23:15.996Z,26.51
2022-07-28T13:25:44.282Z,26.50
2022-07-28T13:28:25.949Z,26.44
2022-07-28T13:30:54.234Z,26.53
2022-07-28T13:33:23.657Z,26.54
2022-07-28T13:35:53.099Z,26.46
2022-07-28T13:38:21.338Z,26.31
2022-07-28T13:40:49.529Z,26.20
2022-07-28T13:43:17.619Z,26.20
2022-07-28T13:45:45.759Z,26.17
2022-07-28T13:48:13.991Z,26.20
2022-07-28T13:50:43.991Z,26.06
2022-07-28T13:53:35.659Z,26.03
2022-07-28T13:56:08.791Z,26.01
2022-07-28T13:58:37.710Z,26.13
2022-07-28T14:01:06.711Z,26.12
2022-07-28T14:03:55.780Z,26.14
2022-07-28T14:06:25.479Z,26.28
2022-07-28T14:08:53.230Z,26.34
2022-07-28T14:11:22.064Z,26.27
2022-07-28T14:13:52.088Z,26.43
2022-07-28T14:16:20.344Z,26.52
2022-07-28T14:18:49.533Z,26.52
2022-07-28T14:21:17.411Z,26.44
2022-07-28T14:23:47.502Z,26.48
2022-07-28T14:26:35.128Z,26.51
2022-07-28T14:29:04.683Z,26.56
2022-07-28T14:31:39.382Z,26.49
2022-07-28T14:34:08.100Z,26.56
2022-07-28T14:36:36.078Z,26.54
2022-07-28T14:39:09.166Z,26.55
2022-07-28T14:41:40.136Z,26.57
2022-07-28T14:44:07.896Z,26.56
2022-07-28T14:46:43.138Z,26.64
2022-07-28T14:49:10.909Z,26.69
2022-07-28T14:51:44.331Z,26.73
2022-07-28T14:54:14.179Z,26.73
2022-07-28T14:56:42.095Z,26.69
2022-07-28T14:59:10.244Z,26.62
2022-07-28T15:01:38.023Z,26.54
2022-07-28T15:04:06.410Z,26.50
2022-07-28T15:06:34.167Z,26.51
2022-07-28T15:09:02.876Z,26.52
2022-07-28T15:11:32.177Z,26.45
2022-07-28T15:14:00.375Z,26.33
2022-07-28T15:16:28.770Z,26.42
2022-07-28T15:18:56.510Z,26.40
2022-07-28T15:21:24.281Z,26.32
2022-07-28T15:23:52.312Z,26.38
2022-07-28T15:26:20.105Z,26.33
2022-07-28T15:28:49.563Z,26.32
2022-07-28T15:31:17.883Z,26.35
2022-07-28T15:33:54.885Z,26.35
2022-07-28T15:36:26.586Z,26.31
2022-07-28T15:38:55.014Z,26.31
2022-07-28T15:41:23.013Z,26.38
2022-07-28T15:43:52.629Z,26.34
2022-07-28T15:46:20.425Z,26.27
2022-07-28T15:48:48.360Z,26.25
2022-07-28T15:51:16.190Z,26.23
2022-07-28T15:53:46.082Z,26.33
2022-07-28T15:56:14.464Z,26.32
2022-07-28T15:58:42.712Z,26.36
2022-07-28T16:01:11.767Z,26.44
2022-07-28T16:03:39.514Z,26.46
2022-07-28T16:06:07.717Z,26.46
2022-07-28T16:08:35.478Z,26.49
2022-07-28T16:11:03.446Z,26.53
2022-07-28T16:13:37.053Z,26.49
2022-07-28T16:16:07.439Z,26.49
2022-07-28T16:18:38.135Z,26.47
2022-07-28T16:21:07.262Z,26.49
2022-07-28T16:23:35.623Z,26.41
2022-07-28T16:26:05.013Z,26.39
2022-07-28T16:28:32.821Z,26.37
2022-07-28T16:31:00.612Z,26.35
2022-07-28T16:33:28.330Z,26.37
2022-07-28T16:36:03.557Z,26.34
2022-07-28T16:38:31.357Z,26.39
2022-07-28T16:40:59.169Z,26.37
2022-07-28T16:43:27.018Z,26.53
2022-07-28T16:45:54.818Z,26.57
2022-07-28T16:48:22.649Z,26.56
2022-07-28T16:50:51.942Z,26.40
2022-07-28T16:53:21.082Z,26.57
2022-07-28T16:55:48.931Z,26.63
2022-07-28T16:58:18.129Z,26.52
2022-07-28T17:00:45.861Z,26.46
2022-07-28T17:03:13.708Z,26.45
2022-07-28T17:05:41.411Z,26.33
2022-07-28T17:08:10.038Z,26.24
2022-07-28T17:10:39.201Z,26.26
2022-07-28T17:13:07.229Z,26.32
2022-07-28T17:15:38.311Z,26.37
2022-07-28T17:18:06.874Z,26.41
2022-07-28T17:20:35.153Z,26.30
2022-07-28T17:23:04.121Z,26.34
2022-07-28T17:28:21.021Z,26.30
2022-07-28T17:30:48.807Z,26.43
2022-07-28T17:33:16.593Z,26.49
2022-07-28T17:35:45.008Z,26.47
2022-07-28T17:38:15.613Z,26.48
2022-07-28T17:40:43.982Z,26.50
2022-07-28T17:43:14.647Z,26.46
2022-07-28T17:45:44.806Z,26.48
2022-07-28T17:48:12.569Z,26.44
2022-07-28T17:50:40.442Z,26.46
2022-07-28T17:53:08.257Z,26.47
2022-07-28T17:55:57.704Z,26.39
2022-07-28T17:58:29.540Z,26.35
2022-07-28T18:01:10.088Z,26.25
2022-07-28T18:03:59.661Z,26.26
2022-07-28T18:06:33.946Z,26.24
2022-07-28T18:09:06.404Z,26.17
2022-07-28T18:11:43.354Z,26.07
2022-07-28T18:14:24.624Z,26.11
2022-07-28T18:16:53.766Z,26.13
2022-07-28T18:19:21.571Z,26.04
2022-07-28T18:21:49.975Z,26.02
2022-07-28T18:24:18.364Z,25.99
2022-07-28T18:26:46.568Z,25.97
2022-07-28T18:29:14.834Z,25.90
2022-07-28T18:31:46.609Z,25.86
2022-07-28T18:34:17.157Z,25.88
2022-07-28T18:36:45.827Z,25.89
2022-07-28T18:39:13.749Z,25.90
2022-07-28T18:41:46.157Z,25.94
2022-07-28T18:44:16.123Z,25.93
2022-07-28T18:46:44.535Z,25.93
2022-07-28T18:49:12.421Z,25.92
2022-07-28T18:51:44.998Z,25.76
2022-07-28T18:54:13.984Z,25.76
2022-07-28T18:56:42.212Z,25.82
2022-07-28T18:59:11.133Z,25.77
2022-07-28T19:01:39.322Z,25.75
2022-07-28T19:04:07.153Z,25.75
2022-07-28T19:06:36.390Z,25.70
2022-07-28T19:09:05.962Z,25.69
2022-07-28T19:11:34.033Z,25.67
2022-07-28T19:14:02.065Z,25.59
2022-07-28T19:16:29.810Z,25.62
2022-07-28T19:18:57.885Z,25.60
2022-07-28T19:21:25.674Z,25.58
2022-07-28T19:23:53.771Z,25.59
2022-07-28T19:26:23.795Z,25.54
2022-07-28T19:28:51.786Z,25.52
2022-07-28T19:31:19.785Z,25.52
2022-07-28T19:33:47.685Z,25.36
2022-07-28T19:36:15.745Z,25.42
2022-07-28T19:38:44.053Z,25.28
2022-07-28T19:41:12.896Z,25.28
2022-07-28T19:43:42.296Z,25.33
2022-07-28T19:46:10.776Z,25.35
2022-07-28T19:48:39.628Z,25.27
2022-07-28T19:51:07.471Z,25.37
2022-07-28T19:53:35.703Z,25.37
2022-07-28T19:56:07.214Z,25.40
2022-07-28T19:58:36.870Z,25.38
2022-07-28T20:01:06.468Z,25.38
2022-07-28T20:04:01.575Z,25.35
2022-07-28T20:06:24.699Z,25.31
2022-07-28T20:08:53.327Z,25.23
2022-07-28T20:11:21.631Z,25.22
2022-07-28T20:13:49.904Z,25.16
2022-07-28T20:16:20.385Z,25.15
2022-07-28T20:18:48.458Z,25.09
2022-07-28T20:21:16.868Z,25.04
2022-07-28T20:23:44.574Z,25.03
2022-07-28T20:26:14.566Z,25.04
2022-07-28T20:28:43.639Z,25.05
2022-07-28T20:31:16.434Z,25.06
2022-07-28T20:33:46.265Z,25.06
2022-07-28T20:36:14.079Z,24.97
2022-07-28T20:38:42.286Z,24.92
2022-07-28T20:41:10.042Z,24.91
2022-07-28T20:43:38.319Z,24.87
2022-07-28T20:46:06.532Z,24.86
2022-07-28T20:48:34.986Z,24.86
2022-07-28T20:51:04.410Z,24.85
2022-07-28T20:53:32.202Z,24.84
2022-07-28T20:56:00.216Z,24.85
2022-07-28T20:58:28.194Z,24.86
2022-07-28T21:00:57.937Z,24.87
2022-07-28T21:03:26.081Z,24.87
2022-07-28T21:05:54.176Z,24.87
2022-07-28T21:08:24.466Z,24.86
2022-07-28T21:10:52.375Z,24.86
2022-07-28T21:13:20.189Z,24.77
2022-07-28T21:15:47.935Z,24.75
2022-07-28T21:18:17.356Z,24.73
2022-07-28T21:20:45.444Z,24.66
2022-07-28T21:23:13.419Z,24.62
2022-07-28T21:25:45.096Z,24.55
2022-07-28T21:28:30.943Z,24.54
2022-07-28T21:30:59.082Z,24.52
2022-07-28T21:33:26.859Z,24.51
2022-07-28T21:35:54.665Z,24.50
2022-07-28T21:38:23.326Z,24.49
2022-07-28T21:40:52.441Z,24.48
2022-07-28T21:43:20.165Z,24.46
2022-07-28T21:45:49.138Z,24.42
2022-07-28T21:48:19.136Z,24.42
2022-07-28T21:50:46.869Z,24.39
2022-07-28T21:53:17.248Z,24.39
2022-07-28T21:55:45.671Z,24.34
2022-07-28T21:58:15.553Z,24.27
2022-07-28T22:00:43.995Z,24.23
2022-07-28T22:03:12.339Z,24.21
2022-07-28T22:05:40.333Z,24.21
2022-07-28T22:08:09.350Z,24.21
2022-07-28T22:10:37.146Z,24.22
2022-07-28T22:13:05.156Z,24.20
2022-07-28T22:15:34.310Z,24.19
2022-07-28T22:18:02.349Z,24.17
2022-07-28T22:20:30.525Z,24.15
2022-07-28T22:22:58.234Z,24.15
2022-07-28T22:25:26.220Z,24.13
2022-07-28T22:27:54.455Z,24.12
2022-07-28T22:30:22.351Z,24.11
2022-07-28T22:32:51.706Z,24.11
2022-07-28T22:35:19.465Z,24.10
2022-07-28T22:37:47.210Z,24.09
2022-07-28T22:40:16.355Z,24.06
2022-07-28T22:42:44.904Z,24.07
2022-07-28T22:45:13.901Z,24.06
2022-07-28T22:47:42.335Z,24.03
2022-07-28T22:50:11.701Z,24.03
2022-07-28T22:52:40.043Z,24.01
2022-07-28T22:55:08.897Z,23.99
2022-07-28T22:57:36.826Z,23.97
2022-07-28T23:00:06.376Z,23.97
2022-07-28T23:02:35.571Z,23.96
2022-07-28T23:05:05.210Z,23.90
2022-07-28T23:07:53.319Z,23.84
2022-07-28T23:10:22.384Z,23.81
2022-07-28T23:12:50.391Z,23.75
2022-07-28T23:15:18.298Z,23.72
2022-07-28T23:17:46.054Z,23.65
2022-07-28T23:20:13.991Z,23.57
2022-07-28T23:22:43.089Z,23.56
2022-07-28T23:25:10.958Z,23.53
2022-07-28T23:27:38.880Z,23.52
2022-07-28T23:30:07.935Z,23.49
2022-07-28T23:32:35.659Z,23.45
2022-07-28T23:35:03.683Z,23.42
2022-07-28T23:37:34.324Z,23.38
2022-07-28T23:40:03.837Z,23.34
2022-07-28T23:42:31.590Z,23.27
2022-07-28T23:44:59.345Z,23.22
2022-07-28T23:47:27.321Z,23.22
2022-07-28T23:49:55.492Z,23.17
2022-07-28T23:52:23.266Z,23.15
2022-07-28T23:54:51.271Z,23.13
2022-07-28T23:57:20.402Z,23.11
2022-07-28T23:59:48.164Z,23.01
